Time;durP1;ratioP1;P1;durP2;ratioP2;P2;SDS_P1;SDS_P2;PMS_P1;PMS_P2;Temp;Humidity;BMP_temperature;BMP_pressure;BME280_temperature;BME280_humidity;BME280_pressure;Samples;Min_cycle;Max_cycle;Signal;HPM_P1;HPM_P2
2024/02/28 00:01:18;;;;;;;;;16.33;13.33;;;;;;;;5124007;27;44735;-75
2024/02/28 00:03:44;;;;;;;;;17.00;17.00;;;;;;;;5121524;27;45297;-76
2024/02/28 00:06:09;;;;;;;;;16.67;14.33;;;;;;;;5120046;27;45300;-75
2024/02/28 00:08:35;;;;;;;;;13.00;13.00;;;;;;;;5121133;27;46192;-75
2024/02/28 00:11:00;;;;;;;;;15.00;15.00;;;;;;;;5120155;27;45552;-75
2024/02/28 00:13:25;;;;;;;;;14.00;14.00;;;;;;;;5122773;27;44657;-76
2024/02/28 00:15:51;;;;;;;;;11.00;10.00;;;;;;;;5124349;27;45817;-76
2024/02/28 00:18:16;;;;;;;;;10.00;9.67;;;;;;;;5125228;27;44969;-75
2024/02/28 00:20:43;;;;;;;;;7.00;7.00;;;;;;;;5125534;27;45432;-75
2024/02/28 00:23:08;;;;;;;;;8.33;8.33;;;;;;;;5124854;27;45382;-76
2024/02/28 00:25:34;;;;;;;;;14.33;10.67;;;;;;;;5123434;27;45236;-76
2024/02/28 00:28:00;;;;;;;;;13.67;13.33;;;;;;;;5122409;27;47310;-75
2024/02/28 00:30:25;;;;;;;;;9.00;9.00;;;;;;;;5126370;27;44593;-75
2024/02/28 00:32:50;;;;;;;;;12.33;12.33;;;;;;;;5124780;27;45228;-76
2024/02/28 00:35:15;;;;;;;;;12.67;12.00;;;;;;;;5123219;27;45310;-75
2024/02/28 00:37:40;;;;;;;;;10.00;10.00;;;;;;;;5123494;27;48107;-76
2024/02/28 00:40:07;;;;;;;;;15.00;11.00;;;;;;;;5123686;27;44652;-76
2024/02/28 00:42:33;;;;;;;;;12.33;10.00;;;;;;;;5122979;27;44628;-75
2024/02/28 00:44:58;;;;;;;;;9.00;9.00;;;;;;;;5123721;27;45238;-75
2024/02/28 00:47:23;;;;;;;;;10.00;9.00;;;;;;;;5124135;27;46292;-76
2024/02/28 00:49:48;;;;;;;;;9.67;6.33;;;;;;;;5123012;27;45239;-76
2024/02/28 00:52:14;;;;;;;;;11.67;10.00;;;;;;;;5123243;27;44787;-75
2024/02/28 00:54:39;;;;;;;;;9.67;9.00;;;;;;;;5124243;27;44763;-76
2024/02/28 00:57:04;;;;;;;;;9.67;8.00;;;;;;;;5128871;27;46271;-75
2024/02/28 00:59:29;;;;;;;;;9.33;7.67;;;;;;;;5145444;27;45363;-74
2024/02/28 01:01:54;;;;;;;;;9.00;9.00;;;;;;;;5145439;27;45251;-75
2024/02/28 01:04:20;;;;;;;;;6.67;6.67;;;;;;;;5142888;27;47378;-75
2024/02/28 01:06:45;;;;;;;;;8.00;8.00;;;;;;;;5142759;27;46766;-75
2024/02/28 01:09:10;;;;;;;;;10.00;10.00;;;;;;;;5142481;27;45719;-76
2024/02/28 01:11:35;;;;;;;;;9.67;8.33;;;;;;;;5143657;27;44682;-75
2024/02/28 01:14:00;;;;;;;;;9.33;7.00;;;;;;;;5144854;27;45340;-76
2024/02/28 01:16:26;;;;;;;;;11.67;11.00;;;;;;;;5143048;27;47260;-75
2024/02/28 01:18:51;;;;;;;;;8.67;8.33;;;;;;;;5142859;27;45364;-75
2024/02/28 01:21:16;;;;;;;;;11.67;8.00;;;;;;;;5141715;27;44717;-76
2024/02/28 01:23:41;;;;;;;;;2.00;1.00;;;;;;;;5142102;27;45270;-76
2024/02/28 01:26:07;;;;;;;;;11.33;11.33;;;;;;;;5122542;27;45153;-77
2024/02/28 01:28:32;;;;;;;;;13.00;9.33;;;;;;;;5120929;27;45487;-76
2024/02/28 01:30:58;;;;;;;;;8.33;7.33;;;;;;;;5121100;27;44733;-76
2024/02/28 01:33:23;;;;;;;;;8.00;8.00;;;;;;;;5121848;27;47266;-76
2024/02/28 01:35:48;;;;;;;;;8.00;8.00;;;;;;;;5123303;27;45377;-75
2024/02/28 01:38:13;;;;;;;;;12.00;10.33;;;;;;;;5124539;27;45230;-76
2024/02/28 01:40:38;;;;;;;;;12.33;10.67;;;;;;;;5122396;27;44670;-74
2024/02/28 01:43:06;;;;;;;;;7.33;7.33;;;;;;;;5124437;27;45341;-76
2024/02/28 01:45:31;;;;;;;;;7.33;7.33;;;;;;;;5123311;27;46235;-76
2024/02/28 01:47:57;;;;;;;;;10.33;10.33;;;;;;;;5121786;27;45270;-75
2024/02/28 01:50:22;;;;;;;;;12.67;10.67;;;;;;;;5123702;27;45688;-76
2024/02/28 01:52:47;;;;;;;;;12.67;9.33;;;;;;;;5124441;27;44673;-75
2024/02/28 01:55:12;;;;;;;;;9.00;8.67;;;;;;;;5124057;27;45235;-75
2024/02/28 01:57:38;;;;;;;;;11.67;9.67;;;;;;;;5136361;27;45197;-76
2024/02/28 02:00:04;;;;;;;;;12.67;12.33;;;;;;;;5146097;27;45245;-76
2024/02/28 02:02:29;;;;;;;;;10.00;8.67;;;;;;;;5144691;27;44804;-75
2024/02/28 02:04:57;;;;;;;;;13.67;13.67;;;;;;;;5144557;27;46684;-75
2024/02/28 02:07:22;;;;;;;;;10.00;10.00;;;;;;;;5144405;27;45315;-75
2024/02/28 02:09:48;;;;;;;;;12.67;9.00;;;;;;;;5143655;27;44763;-76
2024/02/28 02:12:13;;;;;;;;;9.33;8.33;;;;;;;;5144613;27;44798;-76
2024/02/28 02:14:38;;;;;;;;;10.67;10.33;;;;;;;;5144478;27;45216;-75
2024/02/28 02:17:03;;;;;;;;;9.00;8.00;;;;;;;;5143298;27;46318;-76
2024/02/28 02:19:28;;;;;;;;;9.67;9.67;;;;;;;;5143832;27;44680;-76
2024/02/28 02:21:57;;;;;;;;;9.00;9.00;;;;;;;;5143744;27;44844;-76
2024/02/28 02:24:22;;;;;;;;;9.00;8.33;;;;;;;;5143271;27;45186;-76
2024/02/28 02:26:47;;;;;;;;;8.67;7.00;;;;;;;;5142571;27;44588;-76
2024/02/28 02:29:13;;;;;;;;;9.00;7.00;;;;;;;;5144066;27;44730;-76
2024/02/28 02:31:38;;;;;;;;;9.00;9.00;;;;;;;;5143372;27;45531;-76
2024/02/28 02:34:03;;;;;;;;;9.00;8.33;;;;;;;;5143789;27;45306;-76
2024/02/28 02:36:28;;;;;;;;;9.00;9.00;;;;;;;;5144693;27;45140;-75
2024/02/28 02:38:53;;;;;;;;;12.00;12.00;;;;;;;;5143217;27;44741;-76
2024/02/28 02:41:19;;;;;;;;;12.67;9.33;;;;;;;;5144489;27;45510;-76
2024/02/28 02:43:44;;;;;;;;;13.00;12.00;;;;;;;;5143862;27;46477;-76
2024/02/28 02:46:09;;;;;;;;;12.67;12.67;;;;;;;;5143908;27;45846;-76
2024/02/28 02:48:35;;;;;;;;;16.33;14.33;;;;;;;;5144632;27;44726;-76
2024/02/28 02:51:00;;;;;;;;;15.33;12.33;;;;;;;;5144557;27;45547;-75
2024/02/28 02:53:25;;;;;;;;;12.00;12.00;;;;;;;;5144301;27;45099;-75
2024/02/28 02:55:50;;;;;;;;;15.00;12.33;;;;;;;;5143814;27;45341;-75
2024/02/28 02:58:15;;;;;;;;;16.67;16.00;;;;;;;;5128608;27;44694;-76
2024/02/28 03:00:40;;;;;;;;;20.33;16.33;;;;;;;;5123944;27;45117;-75
2024/02/28 03:03:06;;;;;;;;;13.33;12.33;;;;;;;;5123519;27;45268;-77
2024/02/28 03:05:31;;;;;;;;;15.33;15.00;;;;;;;;5120911;27;45323;-75
2024/02/28 03:07:56;;;;;;;;;15.67;15.33;;;;;;;;5121858;27;45210;-76
2024/02/28 03:10:22;;;;;;;;;14.33;14.33;;;;;;;;5120483;27;45480;-77
2024/02/28 03:12:47;;;;;;;;;19.33;17.33;;;;;;;;5120384;27;47144;-76
2024/02/28 03:15:12;;;;;;;;;17.33;17.00;;;;;;;;5120815;27;45307;-76
2024/02/28 03:17:37;;;;;;;;;18.00;16.33;;;;;;;;5120285;27;45335;-75
2024/02/28 03:20:03;;;;;;;;;16.00;16.00;;;;;;;;5120551;27;47114;-76
2024/02/28 03:22:28;;;;;;;;;12.00;12.00;;;;;;;;5121996;27;45246;-76
2024/02/28 03:24:53;;;;;;;;;26.33;23.33;;;;;;;;5122366;27;44697;-76
2024/02/28 03:27:18;;;;;;;;;18.33;17.00;;;;;;;;5122517;27;45581;-76
2024/02/28 03:29:43;;;;;;;;;17.33;17.33;;;;;;;;5121048;27;46333;-74
2024/02/28 03:32:09;;;;;;;;;16.00;13.33;;;;;;;;5121733;27;45290;-76
2024/02/28 03:34:34;;;;;;;;;14.67;14.67;;;;;;;;5122287;27;44808;-75
2024/02/28 03:36:59;;;;;;;;;21.00;18.33;;;;;;;;5122370;27;44636;-76
2024/02/28 03:39:24;;;;;;;;;18.00;14.33;;;;;;;;5121256;27;45185;-75
2024/02/28 03:41:50;;;;;;;;;12.00;12.00;;;;;;;;5122394;27;46224;-75
2024/02/28 03:44:15;;;;;;;;;15.33;12.67;;;;;;;;5120974;27;44588;-76
2024/02/28 03:46:40;;;;;;;;;18.33;12.33;;;;;;;;5118929;27;45573;-76
2024/02/28 03:49:05;;;;;;;;;13.33;12.00;;;;;;;;5121090;27;45376;-76
2024/02/28 03:51:30;;;;;;;;;16.00;12.33;;;;;;;;5120820;27;47031;-75
2024/02/28 03:53:56;;;;;;;;;12.00;12.00;;;;;;;;5121522;27;44633;-76
2024/02/28 03:56:26;;;;;;;;;11.00;11.00;;;;;;;;5122689;27;45270;-76
2024/02/28 03:58:52;;;;;;;;;17.67;16.00;;;;;;;;5122396;27;44874;-76
2024/02/28 04:01:17;;;;;;;;;16.67;15.00;;;;;;;;5123943;27;45287;-76
2024/02/28 04:03:43;;;;;;;;;17.67;16.00;;;;;;;;5122698;27;45283;-76
2024/02/28 04:06:08;;;;;;;;;23.50;22.75;;;;;;;;5124319;27;45385;-77
2024/02/28 04:08:33;;;;;;;;;19.67;17.00;;;;;;;;5122978;27;45214;-75
2024/02/28 04:10:59;;;;;;;;;19.00;17.00;;;;;;;;5122310;27;48357;-76
2024/02/28 04:13:24;;;;;;;;;16.67;16.00;;;;;;;;5123084;27;44683;-76
2024/02/28 04:15:49;;;;;;;;;16.67;16.00;;;;;;;;5121881;27;45227;-75
2024/02/28 04:18:14;;;;;;;;;13.67;13.33;;;;;;;;5122827;27;46165;-76
2024/02/28 04:20:39;;;;;;;;;15.00;12.67;;;;;;;;5123629;27;47390;-76
2024/02/28 04:23:04;;;;;;;;;17.00;15.67;;;;;;;;5123631;27;45255;-76
2024/02/28 04:25:30;;;;;;;;;19.00;13.00;;;;;;;;5122119;27;45282;-76
2024/02/28 04:27:56;;;;;;;;;16.67;14.67;;;;;;;;5121780;27;44724;-77
2024/02/28 04:30:22;;;;;;;;;14.00;13.33;;;;;;;;5122861;27;47619;-76
2024/02/28 04:32:47;;;;;;;;;10.00;10.00;;;;;;;;5122218;27;45241;-76
2024/02/28 04:35:15;;;;;;;;;15.00;15.00;;;;;;;;5122536;27;44653;-75
2024/02/28 04:37:40;;;;;;;;;12.67;12.67;;;;;;;;5121855;27;46133;-75
2024/02/28 04:40:06;;;;;;;;;11.00;9.67;;;;;;;;5122818;27;45281;-76
2024/02/28 04:42:31;;;;;;;;;16.67;15.67;;;;;;;;5122668;27;45557;-76
2024/02/28 04:44:56;;;;;;;;;17.33;15.00;;;;;;;;5122647;27;45273;-76
2024/02/28 04:47:23;;;;;;;;;16.00;16.00;;;;;;;;5122098;27;45530;-76
2024/02/28 04:49:48;;;;;;;;;12.67;12.33;;;;;;;;5122285;27;45118;-76
2024/02/28 04:52:13;;;;;;;;;14.67;14.67;;;;;;;;5121827;27;45318;-76
2024/02/28 04:54:39;;;;;;;;;18.00;15.67;;;;;;;;5119218;27;44692;-76
2024/02/28 04:57:05;;;;;;;;;16.00;16.00;;;;;;;;5125079;27;45567;-76
2024/02/28 04:59:30;;;;;;;;;24.50;24.50;;;;;;;;5140361;27;47409;-77
2024/02/28 05:01:55;;;;;;;;;18.33;17.00;;;;;;;;5143317;27;45240;-76
2024/02/28 05:04:21;;;;;;;;;42.75;40.00;;;;;;;;5135154;27;44569;-76
2024/02/28 05:06:46;;;;;;;;;49.50;40.50;;;;;;;;5122217;27;45220;-76
2024/02/28 05:09:11;;;;;;;;;61.50;50.25;;;;;;;;5122500;27;45728;-75
2024/02/28 05:11:36;;;;;;;;;38.00;33.75;;;;;;;;5121313;27;45243;-75
2024/02/28 05:14:01;;;;;;;;;31.50;31.00;;;;;;;;5122024;27;45177;-76
2024/02/28 05:16:26;;;;;;;;;41.00;37.50;;;;;;;;5121766;27;47330;-76
2024/02/28 05:18:51;;;;;;;;;47.00;41.50;;;;;;;;5122452;27;47178;-76
2024/02/28 05:21:17;;;;;;;;;49.25;41.00;;;;;;;;5123833;27;44626;-75
2024/02/28 05:23:42;;;;;;;;;23.25;21.25;;;;;;;;5122746;27;45228;-75
2024/02/28 05:26:07;;;;;;;;;35.25;33.00;;;;;;;;5124916;27;45258;-75
2024/02/28 05:28:35;;;;;;;;;31.75;29.50;;;;;;;;5124563;27;45204;-75
2024/02/28 05:31:19;;;;;;;;;35.50;35.25;;;;;;;;5124558;27;45468;-75
2024/02/28 05:33:44;;;;;;;;;38.25;36.50;;;;;;;;5125377;27;44714;-76
2024/02/28 05:36:09;;;;;;;;;28.00;26.25;;;;;;;;5123960;27;45369;-76
2024/02/28 05:38:34;;;;;;;;;25.25;23.50;;;;;;;;5124990;27;46008;-76
2024/02/28 05:41:00;;;;;;;;;38.25;31.50;;;;;;;;5124980;27;44644;-76
2024/02/28 05:43:27;;;;;;;;;27.33;26.00;;;;;;;;5124812;27;44659;-75
2024/02/28 05:45:52;;;;;;;;;18.67;16.67;;;;;;;;5124885;27;44665;-76
2024/02/28 05:48:17;;;;;;;;;31.25;20.50;;;;;;;;5125626;27;46527;-76
2024/02/28 05:50:42;;;;;;;;;25.00;22.33;;;;;;;;5124550;27;45324;-76
2024/02/28 05:53:07;;;;;;;;;18.75;17.25;;;;;;;;5125830;27;45319;-76
2024/02/28 05:55:33;;;;;;;;;21.25;19.50;;;;;;;;5125254;27;45306;-76
2024/02/28 05:57:58;;;;;;;;;22.33;21.67;;;;;;;;5135245;27;46136;-76
2024/02/28 06:00:23;;;;;;;;;26.67;22.67;;;;;;;;5145520;27;44686;-76
2024/02/28 06:02:48;;;;;;;;;21.67;20.67;;;;;;;;5143616;27;44742;-76
2024/02/28 06:05:13;;;;;;;;;20.33;20.33;;;;;;;;5143711;27;46161;-76
2024/02/28 06:07:38;;;;;;;;;21.67;20.33;;;;;;;;5146824;27;45327;-76
2024/02/28 06:10:04;;;;;;;;;19.00;18.00;;;;;;;;5146077;27;44644;-76
2024/02/28 06:12:29;;;;;;;;;21.67;20.67;;;;;;;;5146983;27;44648;-76
2024/02/28 06:14:54;;;;;;;;;17.33;16.67;;;;;;;;5144833;27;46037;-76
2024/02/28 06:17:20;;;;;;;;;20.33;19.00;;;;;;;;5146093;27;46116;-76
2024/02/28 06:19:45;;;;;;;;;19.33;16.00;;;;;;;;5146541;27;44577;-75
2024/02/28 06:22:10;;;;;;;;;17.00;16.67;;;;;;;;5145942;27;44573;-77
2024/02/28 06:24:36;;;;;;;;;16.67;16.67;;;;;;;;5146258;27;44933;-76
2024/02/28 06:27:01;;;;;;;;;5.33;5.33;;;;;;;;5116060;27;45184;-76
2024/02/28 06:29:27;;;;;;;;;16.67;16.00;;;;;;;;5117877;27;45206;-77
2024/02/28 06:31:52;;;;;;;;;20.33;18.00;;;;;;;;5121612;27;45285;-75
2024/02/28 06:34:18;;;;;;;;;20.00;17.67;;;;;;;;5118917;27;45902;-75
2024/02/28 06:36:43;;;;;;;;;18.67;16.67;;;;;;;;5119146;27;47317;-75
2024/02/28 06:39:08;;;;;;;;;18.33;18.33;;;;;;;;5120010;27;45132;-75
2024/02/28 06:41:34;;;;;;;;;18.33;17.67;;;;;;;;5120198;27;45267;-76
2024/02/28 06:43:59;;;;;;;;;23.33;21.33;;;;;;;;5120635;27;45380;-76
2024/02/28 06:46:24;;;;;;;;;22.67;19.00;;;;;;;;5118991;27;47865;-76
2024/02/28 06:48:50;;;;;;;;;17.67;17.67;;;;;;;;5118675;27;45213;-75
2024/02/28 06:51:16;;;;;;;;;19.67;16.00;;;;;;;;5120404;27;44687;-75
2024/02/28 06:53:41;;;;;;;;;24.33;22.00;;;;;;;;5118845;27;46438;-75
2024/02/28 06:56:06;;;;;;;;;17.00;15.67;;;;;;;;5119478;27;48237;-76
2024/02/28 06:58:32;;;;;;;;;23.67;20.00;;;;;;;;5121377;27;45450;-75
2024/02/28 07:00:57;;;;;;;;;18.00;17.33;;;;;;;;5120897;27;45326;-75
2024/02/28 07:03:22;;;;;;;;;16.33;12.67;;;;;;;;5117908;27;45355;-75
2024/02/28 07:05:47;;;;;;;;;22.67;18.00;;;;;;;;5107710;27;45479;-76
2024/02/28 07:08:13;;;;;;;;;19.33;17.33;;;;;;;;5115671;27;45391;-75
2024/02/28 07:10:43;;;;;;;;;17.33;17.33;;;;;;;;5118248;27;45313;-75
2024/02/28 07:13:08;;;;;;;;;20.33;19.00;;;;;;;;5118552;27;45242;-76
2024/02/28 07:15:33;;;;;;;;;18.33;18.33;;;;;;;;5115803;27;45156;-75
2024/02/28 07:17:58;;;;;;;;;23.33;23.00;;;;;;;;5109121;27;45218;-76
2024/02/28 07:20:24;;;;;;;;;26.75;24.25;;;;;;;;5099619;27;45165;-76
2024/02/28 07:22:49;;;;;;;;;38.75;33.00;;;;;;;;5098510;27;45991;-75
2024/02/28 07:25:14;;;;;;;;;47.50;41.75;;;;;;;;5100499;27;46324;-76
2024/02/28 07:27:40;;;;;;;;;71.00;56.75;;;;;;;;5099835;27;45365;-74
2024/02/28 07:30:06;;;;;;;;;72.25;57.25;;;;;;;;5099679;27;45381;-74
2024/02/28 07:32:34;;;;;;;;;69.00;56.50;;;;;;;;5100473;27;45631;-75
2024/02/28 07:35:00;;;;;;;;;83.50;67.50;;;;;;;;5085452;27;46861;-76
2024/02/28 07:37:25;;;;;;;;;74.00;60.75;;;;;;;;5079809;28;45199;-76
2024/02/28 07:39:50;;;;;;;;;64.25;53.50;;;;;;;;5085868;27;45591;-76
2024/02/28 07:42:15;;;;;;;;;59.75;48.75;;;;;;;;5100279;27;45254;-77
2024/02/28 07:44:41;;;;;;;;;57.25;46.25;;;;;;;;5101580;27;45555;-77
2024/02/28 07:47:06;;;;;;;;;56.50;48.75;;;;;;;;5103121;27;45281;-76
2024/02/28 07:49:31;;;;;;;;;49.25;42.75;;;;;;;;5103820;27;45295;-75
2024/02/28 07:51:56;;;;;;;;;62.50;52.25;;;;;;;;5105444;27;45192;-80
2024/02/28 07:54:21;;;;;;;;;56.50;46.75;;;;;;;;5100439;27;46299;-80
2024/02/28 07:56:47;;;;;;;;;41.75;37.00;;;;;;;;5101886;27;45283;-79
2024/02/28 07:59:12;;;;;;;;;38.25;36.25;;;;;;;;5123856;27;45605;-79
2024/02/28 08:01:39;;;;;;;;;34.75;30.25;;;;;;;;5123770;27;45630;-79
2024/02/28 08:04:04;;;;;;;;;35.50;32.00;;;;;;;;5115827;27;45922;-79
2024/02/28 08:06:30;;;;;;;;;37.50;35.25;;;;;;;;5100459;27;45722;-80
2024/02/28 08:08:56;;;;;;;;;44.50;37.25;;;;;;;;5102959;27;45331;-79
2024/02/28 08:11:21;;;;;;;;;41.25;37.50;;;;;;;;5099372;27;45263;-79
2024/02/28 08:13:46;;;;;;;;;35.50;34.50;;;;;;;;5087389;27;46547;-78
2024/02/28 08:16:11;;;;;;;;;47.75;40.00;;;;;;;;5087589;27;45722;-78
2024/02/28 08:18:37;;;;;;;;;40.25;36.25;;;;;;;;5080826;27;45408;-80
2024/02/28 08:21:02;;;;;;;;;39.33;34.33;;;;;;;;5086918;27;45424;-80
2024/02/28 08:23:28;;;;;;;;;37.75;35.25;;;;;;;;5099808;27;45919;-80
2024/02/28 08:25:54;;;;;;;;;44.50;39.25;;;;;;;;5099726;27;45555;-77
2024/02/28 08:28:19;;;;;;;;;50.00;42.50;;;;;;;;5099887;27;45345;-78
2024/02/28 08:30:44;;;;;;;;;54.25;45.00;;;;;;;;5093733;27;45594;-79
2024/02/28 08:33:10;;;;;;;;;50.25;41.00;;;;;;;;5091702;27;46595;-78
2024/02/28 08:35:35;;;;;;;;;47.00;39.50;;;;;;;;5091060;27;45414;-78
2024/02/28 08:38:02;;;;;;;;;50.25;41.25;;;;;;;;5093150;27;45670;-78
2024/02/28 08:40:27;;;;;;;;;45.50;37.25;;;;;;;;5096853;27;45504;-78
2024/02/28 08:42:54;;;;;;;;;44.75;36.75;;;;;;;;5094710;27;47510;-77
2024/02/28 08:45:19;;;;;;;;;45.00;38.75;;;;;;;;5091346;27;45626;-76
2024/02/28 08:47:44;;;;;;;;;38.50;36.00;;;;;;;;5091101;27;45582;-78
2024/02/28 08:50:10;;;;;;;;;39.00;36.50;;;;;;;;5093615;27;45656;-76
2024/02/28 08:52:35;;;;;;;;;43.50;39.00;;;;;;;;5091648;27;45579;-76
2024/02/28 08:55:00;;;;;;;;;51.50;41.00;;;;;;;;5097427;27;45501;-77
2024/02/28 08:57:25;;;;;;;;;53.75;43.25;;;;;;;;5108120;27;45485;-77
2024/02/28 08:59:50;;;;;;;;;50.75;43.00;;;;;;;;5093864;27;45471;-77
2024/02/28 09:02:16;;;;;;;;;49.25;38.00;;;;;;;;5099240;27;46438;-75
2024/02/28 09:04:42;;;;;;;;;45.75;40.25;;;;;;;;5093802;27;45968;-79
2024/02/28 09:07:07;;;;;;;;;41.25;37.25;;;;;;;;5090726;27;46386;-78
2024/02/28 09:09:37;;;;;;;;;46.25;38.75;;;;;;;;5094417;27;45874;-77
2024/02/28 09:12:03;;;;;;;;;39.75;36.25;;;;;;;;5093615;27;46446;-79
2024/02/28 09:14:28;;;;;;;;;45.00;37.75;;;;;;;;5092046;27;45930;-78
2024/02/28 09:16:55;;;;;;;;;47.00;40.50;;;;;;;;5092471;27;45448;-78
2024/02/28 09:19:21;;;;;;;;;41.75;36.75;;;;;;;;5091577;27;47116;-79
2024/02/28 09:21:47;;;;;;;;;39.25;35.75;;;;;;;;5090779;27;47132;-80
2024/02/28 09:24:13;;;;;;;;;47.25;38.75;;;;;;;;5095853;27;45629;-78
2024/02/28 09:26:41;;;;;;;;;39.75;36.75;;;;;;;;5091763;27;45503;-77
2024/02/28 09:29:06;;;;;;;;;34.67;31.67;;;;;;;;5095066;27;45713;-77
2024/02/28 09:31:31;;;;;;;;;32.67;31.33;;;;;;;;5088347;27;48202;-77
2024/02/28 09:33:58;;;;;;;;;35.67;34.00;;;;;;;;5095738;27;45528;-78
2024/02/28 09:36:23;;;;;;;;;39.00;35.33;;;;;;;;5101318;27;45296;-78
2024/02/28 09:38:48;;;;;;;;;47.00;39.67;;;;;;;;5100351;27;45857;-78
2024/02/28 09:41:17;;;;;;;;;45.25;37.00;;;;;;;;5098082;27;46161;-79
2024/02/28 09:43:42;;;;;;;;;43.00;37.67;;;;;;;;5101123;27;45413;-77
2024/02/28 09:46:11;;;;;;;;;41.33;35.00;;;;;;;;5096213;27;46378;-77
2024/02/28 09:48:38;;;;;;;;;46.33;37.33;;;;;;;;5097941;27;47321;-77
2024/02/28 09:51:03;;;;;;;;;43.00;36.00;;;;;;;;5095946;27;46650;-77
2024/02/28 09:53:29;;;;;;;;;39.00;35.33;;;;;;;;5100022;27;45808;-78
2024/02/28 09:55:54;;;;;;;;;21.00;18.33;;;;;;;;5100038;27;45496;-79
2024/02/28 09:58:21;;;;;;;;;18.67;17.67;;;;;;;;5093270;27;46264;-76
2024/02/28 10:00:46;;;;;;;;;27.00;24.33;;;;;;;;5092965;27;46376;-77
2024/02/28 10:03:13;;;;;;;;;20.67;20.67;;;;;;;;5094538;27;45435;-76
2024/02/28 10:05:39;;;;;;;;;23.33;20.67;;;;;;;;5090925;27;45617;-76
2024/02/28 10:08:05;;;;;;;;;28.33;25.33;;;;;;;;5094320;27;45449;-76
2024/02/28 10:10:30;;;;;;;;;18.00;17.33;;;;;;;;5092696;27;47172;-77
2024/02/28 10:12:56;;;;;;;;;20.67;19.33;;;;;;;;5088693;27;45377;-77
2024/02/28 10:15:21;;;;;;;;;17.00;14.00;;;;;;;;5092264;27;46329;-77
2024/02/28 10:17:47;;;;;;;;;9.67;8.33;;;;;;;;5093587;27;45682;-78
2024/02/28 10:20:12;;;;;;;;;10.67;10.00;;;;;;;;5093231;27;46512;-77
2024/02/28 10:22:37;;;;;;;;;10.00;10.00;;;;;;;;5092107;27;45762;-77
2024/02/28 10:25:03;;;;;;;;;16.00;14.00;;;;;;;;5094074;27;45495;-79
2024/02/28 10:27:31;;;;;;;;;17.33;14.67;;;;;;;;5092870;27;46963;-78
2024/02/28 10:29:57;;;;;;;;;17.67;13.67;;;;;;;;5089830;27;47789;-79
2024/02/28 10:32:22;;;;;;;;;16.00;16.00;;;;;;;;5094008;27;45702;-78
2024/02/28 10:34:47;;;;;;;;;16.33;14.67;;;;;;;;5087793;27;45753;-78
2024/02/28 10:37:13;;;;;;;;;16.33;14.67;;;;;;;;5091832;27;46454;-78
2024/02/28 10:39:38;;;;;;;;;18.00;17.33;;;;;;;;5092518;27;46444;-77
2024/02/28 10:42:04;;;;;;;;;14.33;14.33;;;;;;;;5091569;27;45409;-78
2024/02/28 10:44:30;;;;;;;;;13.67;13.67;;;;;;;;5094304;27;45493;-77
2024/02/28 10:46:56;;;;;;;;;12.33;12.33;;;;;;;;5101632;27;45244;-77
2024/02/28 10:49:21;;;;;;;;;13.33;11.33;;;;;;;;5104458;27;45212;-79
2024/02/28 10:51:48;;;;;;;;;11.67;10.00;;;;;;;;5100751;27;45955;-79
2024/02/28 10:54:13;;;;;;;;;10.00;9.33;;;;;;;;5103508;27;45364;-81
2024/02/28 10:56:39;;;;;;;;;13.33;11.00;;;;;;;;5104162;27;45247;-80
2024/02/28 10:59:06;;;;;;;;;8.00;8.00;;;;;;;;5127932;27;45226;-80
2024/02/28 11:01:31;;;;;;;;;11.67;10.33;;;;;;;;5125284;27;45703;-79
2024/02/28 11:03:57;;;;;;;;;15.00;12.33;;;;;;;;5095342;27;45219;-78
2024/02/28 11:06:22;;;;;;;;;10.67;10.67;;;;;;;;5084207;28;45485;-77
2024/02/28 11:08:54;;;;;;;;;12.00;12.00;;;;;;;;5080375;28;46057;-78
2024/02/28 11:11:22;;;;;;;;;13.67;12.33;;;;;;;;5081930;28;45274;-78
2024/02/28 11:13:54;;;;;;;;;8.00;7.67;;;;;;;;5081709;28;45317;-78
2024/02/28 11:16:26;;;;;;;;;13.00;12.00;;;;;;;;5082205;28;47091;-79
2024/02/28 11:18:51;;;;;;;;;11.00;11.00;;;;;;;;5086824;28;45279;-78
2024/02/28 11:21:16;;;;;;;;;12.67;12.00;;;;;;;;5080918;28;45292;-78
2024/02/28 11:23:46;;;;;;;;;16.00;15.67;;;;;;;;5080864;28;45327;-78
2024/02/28 11:26:11;;;;;;;;;18.00;17.33;;;;;;;;5081597;28;45472;-81
2024/02/28 11:28:38;;;;;;;;;14.33;14.00;;;;;;;;5084039;28;48059;-78
2024/02/28 11:31:03;;;;;;;;;13.00;13.00;;;;;;;;5080866;28;45366;-79
2024/02/28 11:33:29;;;;;;;;;15.67;14.33;;;;;;;;5081712;28;45306;-78
2024/02/28 11:35:57;;;;;;;;;19.00;17.33;;;;;;;;5080193;28;47009;-79
2024/02/28 11:38:26;;;;;;;;;9.67;9.67;;;;;;;;5079610;28;46207;-79
2024/02/28 11:40:52;;;;;;;;;9.00;8.67;;;;;;;;5079810;28;45307;-78
2024/02/28 11:43:20;;;;;;;;;11.67;10.00;;;;;;;;5078405;28;45327;-78
2024/02/28 11:45:48;;;;;;;;;10.33;9.67;;;;;;;;5080901;28;45165;-78
2024/02/28 11:48:14;;;;;;;;;11.33;11.00;;;;;;;;5087108;28;46581;-80
2024/02/28 11:50:39;;;;;;;;;15.00;12.00;;;;;;;;5099306;27;45247;-82
2024/02/28 11:53:06;;;;;;;;;13.67;13.67;;;;;;;;5111252;27;45736;-80
2024/02/28 11:55:31;;;;;;;;;9.00;9.00;;;;;;;;5087866;27;48064;-82
2024/02/28 11:57:56;;;;;;;;;14.33;14.00;;;;;;;;5109428;27;47185;-79
2024/02/28 12:00:22;;;;;;;;;17.33;13.33;;;;;;;;5109511;27;45368;-81
2024/02/28 12:02:47;;;;;;;;;15.33;14.33;;;;;;;;5100665;27;45283;-81
2024/02/28 12:05:12;;;;;;;;;16.33;16.33;;;;;;;;5094173;27;45439;-80
2024/02/28 12:07:38;;;;;;;;;12.67;12.67;;;;;;;;5100161;27;45418;-82
2024/02/28 12:10:03;;;;;;;;;13.00;12.33;;;;;;;;5095266;27;45266;-81
2024/02/28 12:12:29;;;;;;;;;12.67;11.33;;;;;;;;5095484;27;45311;-80
2024/02/28 12:14:58;;;;;;;;;10.33;9.33;;;;;;;;5109050;27;45251;-81
2024/02/28 12:42:36;;;;;;;;;12.33;10.00;;;;;;;;4945765;28;45599;-78
2024/02/28 12:45:01;;;;;;;;;9.00;8.67;;;;;;;;5028532;28;45635;-77
2024/02/28 12:47:26;;;;;;;;;10.33;10.00;;;;;;;;5066248;27;45316;-78
2024/02/28 12:49:52;;;;;;;;;10.00;10.00;;;;;;;;5093758;27;45303;-76
2024/02/28 12:52:20;;;;;;;;;13.00;10.67;;;;;;;;5102915;27;45363;-78
2024/02/28 12:54:45;;;;;;;;;12.00;12.00;;;;;;;;5101297;27;45239;-76
2024/02/28 12:57:12;;;;;;;;;12.00;12.00;;;;;;;;5109384;27;45269;-77
2024/02/28 12:59:39;;;;;;;;;11.00;11.00;;;;;;;;5122334;27;45845;-76
2024/02/28 13:02:04;;;;;;;;;17.00;17.00;;;;;;;;5116620;27;45347;-78
2024/02/28 13:04:30;;;;;;;;;21.00;21.00;;;;;;;;5103574;27;45265;-76
2024/02/28 13:06:55;;;;;;;;;25.33;23.00;;;;;;;;5104808;27;45479;-76
2024/02/28 13:09:22;;;;;;;;;25.67;21.33;;;;;;;;5101150;27;46076;-79
2024/02/28 13:11:47;;;;;;;;;16.00;15.33;;;;;;;;5102669;27;45293;-77
2024/02/28 13:14:12;;;;;;;;;12.67;12.67;;;;;;;;5104746;27;45309;-77
2024/02/28 13:16:37;;;;;;;;;20.00;17.00;;;;;;;;5105720;27;45279;-78
2024/02/28 13:19:04;;;;;;;;;13.33;12.33;;;;;;;;5101142;27;45238;-77
2024/02/28 13:21:29;;;;;;;;;21.00;19.67;;;;;;;;5083529;27;45318;-78
2024/02/28 13:23:54;;;;;;;;;14.67;11.33;;;;;;;;5083063;27;45408;-78
2024/02/28 13:26:20;;;;;;;;;15.67;15.67;;;;;;;;5082532;27;45373;-78
2024/02/28 13:28:46;;;;;;;;;19.33;17.67;;;;;;;;5081877;28;45202;-77
2024/02/28 13:31:11;;;;;;;;;15.33;15.33;;;;;;;;5082021;27;46589;-78
2024/02/28 13:33:37;;;;;;;;;16.00;16.00;;;;;;;;5082265;28;45956;-78
2024/02/28 13:36:03;;;;;;;;;13.33;13.33;;;;;;;;5082687;27;45592;-78
2024/02/28 13:38:29;;;;;;;;;12.33;11.67;;;;;;;;5092360;27;45855;-79
2024/02/28 13:40:54;;;;;;;;;13.00;12.00;;;;;;;;5096442;27;45372;-75
2024/02/28 13:43:19;;;;;;;;;14.00;13.00;;;;;;;;5090974;27;45479;-79
2024/02/28 13:45:48;;;;;;;;;10.33;10.00;;;;;;;;5102002;27;45342;-79
2024/02/28 13:48:18;;;;;;;;;12.00;11.33;;;;;;;;5114718;27;45552;-78
2024/02/28 13:50:44;;;;;;;;;12.67;11.00;;;;;;;;5113804;27;47116;-78
2024/02/28 13:53:09;;;;;;;;;12.00;12.00;;;;;;;;5111169;27;45339;-78
2024/02/28 13:55:34;;;;;;;;;10.33;10.33;;;;;;;;5106763;27;45571;-77
2024/02/28 13:57:59;;;;;;;;;9.33;9.33;;;;;;;;5126707;27;47319;-79
2024/02/28 14:00:24;;;;;;;;;10.33;9.67;;;;;;;;5116144;27;47067;-77
2024/02/28 14:02:49;;;;;;;;;10.00;8.67;;;;;;;;5119225;27;45199;-79
2024/02/28 14:05:15;;;;;;;;;9.67;9.67;;;;;;;;5137304;27;45355;-78
2024/02/28 14:07:40;;;;;;;;;11.33;10.00;;;;;;;;5127538;27;46381;-75
2024/02/28 14:10:05;;;;;;;;;9.00;8.00;;;;;;;;5129973;27;45022;-74
2024/02/28 14:12:31;;;;;;;;;8.67;8.33;;;;;;;;5123598;27;45236;-77
2024/02/28 14:14:56;;;;;;;;;10.33;9.33;;;;;;;;5134344;27;45325;-78
2024/02/28 14:17:21;;;;;;;;;10.67;9.00;;;;;;;;5132735;27;45348;-78
2024/02/28 14:19:48;;;;;;;;;11.67;11.00;;;;;;;;5133119;27;45356;-78
2024/02/28 14:22:14;;;;;;;;;9.00;9.00;;;;;;;;5132811;27;45422;-78
2024/02/28 14:24:39;;;;;;;;;12.67;10.00;;;;;;;;5123846;27;45248;-77
2024/02/28 14:27:05;;;;;;;;;11.00;9.00;;;;;;;;5128286;27;45380;-78
2024/02/28 14:29:30;;;;;;;;;10.67;9.00;;;;;;;;5124110;27;47373;-78
2024/02/28 14:31:55;;;;;;;;;11.67;11.00;;;;;;;;5120483;27;45630;-78
2024/02/28 14:34:20;;;;;;;;;16.00;15.00;;;;;;;;5132166;27;45208;-78
2024/02/28 14:36:48;;;;;;;;;14.67;13.67;;;;;;;;5121839;27;45488;-76